Eastern Asia — 3FQP2 — position and weather

sailwx.info

Track history (hours):
 
Tides and Currents Weather Stations Pressure Air Temp Water Temp Dewpoint Dewpoint Depression Visibility Wind Speed Wind Dir Waves Ship Positions

Eastern Asia

Last reported at 2017-Jan-21 21:31 UTC. Time now 2017-Jan-21 21:48 UTC.
Position N 46°07' W 122°58'.

Length 175 m; draft 6.6 m.

Type: Cargo ship. MMSI: 355530000.

Date/timePositionNaut miles runAvg speedWind from/ knotsBaromVisibWave heightAir tempDewpointWater temp
2017-Jan-21 21:31N 46°07' W 122°58'0 0.0
2017-Jan-21 20:31N 46°07' W 122°58'0 0.0
2017-Jan-21 19:31N 46°07' W 122°58'0 0.0
2017-Jan-21 18:31N 46°07' W 122°58'0 0.0
2017-Jan-21 17:31N 46°07' W 122°58'0 0.0
2017-Jan-21 16:31N 46°07' W 122°58'0 0.0
2017-Jan-21 15:31N 46°07' W 122°58'0 0.0
2017-Jan-21 14:31N 46°07' W 122°58'0 0.0
2017-Jan-21 13:31N 46°07' W 122°58'0 0.0
2017-Jan-21 12:31N 46°07' W 122°58'0 0.0
2017-Jan-21 11:31N 46°07' W 122°58'0 0.0
2017-Jan-21 10:31N 46°07' W 122°58'0 0.0
2017-Jan-21 09:31N 46°07' W 122°58'0 0.0
2017-Jan-21 08:31N 46°07' W 122°58'0 0.0
2017-Jan-21 07:31N 46°07' W 122°58'0 0.0
2017-Jan-21 06:31N 46°07' W 122°58'0 0.0
2017-Jan-21 05:28N 46°07' W 122°58'0 0.0
2017-Jan-21 04:31N 46°07' W 122°58'0 0.0
2017-Jan-21 03:31N 46°07' W 122°58'0 0.0
2017-Jan-21 02:31N 46°07' W 122°58'0 0.0
2017-Jan-21 01:31N 46°07' W 122°58'0 0.0
2017-Jan-21 00:31N 46°07' W 122°58'0 0.0
2017-Jan-20 23:31N 46°07' W 122°58'0 0.0
2017-Jan-20 22:31N 46°07' W 122°58'0 0.0
2017-Jan-20 21:31N 46°07' W 122°58'0 0.0
2017-Jan-20 20:31N 46°07' W 122°58'0 0.0
2017-Jan-20 19:31N 46°07' W 122°58'0 0.0
2017-Jan-20 18:31N 46°07' W 122°58'0 0.0
2017-Jan-20 17:28N 46°07' W 122°58'0 0.0
2017-Jan-20 16:31N 46°07' W 122°58'0 0.0
2017-Jan-20 15:31N 46°07' W 122°58'0 0.0
2017-Jan-20 14:28N 46°07' W 122°58'0 0.0
2017-Jan-20 13:31N 46°07' W 122°58'0 0.0
2017-Jan-20 12:31N 46°07' W 122°58'0 0.0
2017-Jan-20 11:28N 46°07' W 122°58'0 0.0
2017-Jan-20 10:31N 46°07' W 122°58'0 0.1
2017-Jan-20 09:33N 46°07' W 122°58'8 8.4
2017-Jan-20 08:34N 46°11' W 123°08'1111.1
2017-Jan-20 07:34N 46°09' W 123°24'9 9.2
2017-Jan-20 06:34N 46°15' W 123°33'1111.3
2017-Jan-20 05:34N 46°12' W 123°49'8 8.4
2017-Jan-20 04:34N 46°15' W 124°00'9 9.2
2017-Jan-20 03:34N 46°10' W 124°11'6 6.5
2017-Jan-20 02:33N 46°10' W 124°21'1212.5
2017-Jan-20 01:34N 46°12' W 124°38'1414.2
2017-Jan-20 00:34N 46°12' W 124°59'1413.9
2017-Jan-19 23:34N 46°12' W 125°19'  
Track history (hours):
 
Tides and Currents Weather Stations Pressure Air Temp Water Temp Dewpoint Dewpoint Depression Visibility Wind Speed Wind Dir Waves Ship Positions

Eastern Asia

Last reported at 2017-Jan-21 21:31 UTC. Time now 2017-Jan-21 21:48 UTC.
Position N 46°07' W 122°58'.

Length 175 m; draft 6.6 m.

Type: Cargo ship. MMSI: 355530000.

Date/timePositionNaut miles runAvg speedWind from/ knotsBaromVisibWave heightAir tempDewpointWater temp
2017-Jan-21 21:31N 46°07' W 122°58'0 0.0
2017-Jan-21 20:31N 46°07' W 122°58'0 0.0
2017-Jan-21 19:31N 46°07' W 122°58'0 0.0
2017-Jan-21 18:31N 46°07' W 122°58'0 0.0
2017-Jan-21 17:31N 46°07' W 122°58'0 0.0
2017-Jan-21 16:31N 46°07' W 122°58'0 0.0
2017-Jan-21 15:31N 46°07' W 122°58'0 0.0
2017-Jan-21 14:31N 46°07' W 122°58'0 0.0
2017-Jan-21 13:31N 46°07' W 122°58'0 0.0
2017-Jan-21 12:31N 46°07' W 122°58'0 0.0
2017-Jan-21 11:31N 46°07' W 122°58'0 0.0
2017-Jan-21 10:31N 46°07' W 122°58'0 0.0
2017-Jan-21 09:31N 46°07' W 122°58'0 0.0
2017-Jan-21 08:31N 46°07' W 122°58'0 0.0
2017-Jan-21 07:31N 46°07' W 122°58'0 0.0
2017-Jan-21 06:31N 46°07' W 122°58'0 0.0
2017-Jan-21 05:28N 46°07' W 122°58'0 0.0
2017-Jan-21 04:31N 46°07' W 122°58'0 0.0
2017-Jan-21 03:31N 46°07' W 122°58'0 0.0
2017-Jan-21 02:31N 46°07' W 122°58'0 0.0
2017-Jan-21 01:31N 46°07' W 122°58'0 0.0
2017-Jan-21 00:31N 46°07' W 122°58'0 0.0
2017-Jan-20 23:31N 46°07' W 122°58'0 0.0
2017-Jan-20 22:31N 46°07' W 122°58'0 0.0
2017-Jan-20 21:31N 46°07' W 122°58'0 0.0
2017-Jan-20 20:31N 46°07' W 122°58'0 0.0
2017-Jan-20 19:31N 46°07' W 122°58'0 0.0
2017-Jan-20 18:31N 46°07' W 122°58'0 0.0
2017-Jan-20 17:28N 46°07' W 122°58'0 0.0
2017-Jan-20 16:31N 46°07' W 122°58'0 0.0
2017-Jan-20 15:31N 46°07' W 122°58'0 0.0
2017-Jan-20 14:28N 46°07' W 122°58'0 0.0
2017-Jan-20 13:31N 46°07' W 122°58'0 0.0
2017-Jan-20 12:31N 46°07' W 122°58'0 0.0
2017-Jan-20 11:28N 46°07' W 122°58'0 0.0
2017-Jan-20 10:31N 46°07' W 122°58'0 0.1
2017-Jan-20 09:33N 46°07' W 122°58'8 8.4
2017-Jan-20 08:34N 46°11' W 123°08'1111.1
2017-Jan-20 07:34N 46°09' W 123°24'9 9.2
2017-Jan-20 06:34N 46°15' W 123°33'1111.3
2017-Jan-20 05:34N 46°12' W 123°49'8 8.4
2017-Jan-20 04:34N 46°15' W 124°00'9 9.2
2017-Jan-20 03:34N 46°10' W 124°11'6 6.5
2017-Jan-20 02:33N 46°10' W 124°21'1212.5
2017-Jan-20 01:34N 46°12' W 124°38'1414.2
2017-Jan-20 00:34N 46°12' W 124°59'1413.9
2017-Jan-19 23:34N 46°12' W 125°19'  

Dump ship's entire track history